createdAt,value
2022-10-17T00:02:17.337Z,100511.53
2022-10-17T00:04:44.134Z,100509.75
2022-10-17T00:07:11.131Z,100504.81
2022-10-17T00:09:37.967Z,100502.53
2022-10-17T00:12:04.982Z,100510.84
2022-10-17T00:14:31.854Z,100510.59
2022-10-17T00:16:58.650Z,100502.81
2022-10-17T00:19:44.328Z,100521.09
2022-10-17T00:22:11.264Z,100516.06
2022-10-17T00:24:38.074Z,100513.81
2022-10-17T00:27:05.010Z,100508.72
2022-10-17T00:29:31.814Z,100509.22
2022-10-17T00:32:01.332Z,100517.16
2022-10-17T00:34:29.790Z,100508.81
2022-10-17T00:36:56.616Z,100512.63
2022-10-17T00:39:23.552Z,100511.41
2022-10-17T00:41:50.642Z,100512.03
2022-10-17T00:44:29.526Z,100525.03
2022-10-17T00:46:59.114Z,100532.81
2022-10-17T00:49:28.719Z,100525.72
2022-10-17T00:51:59.249Z,100526.41
2022-10-17T00:54:35.660Z,100530.47
2022-10-17T00:57:03.564Z,100532.38
2022-10-17T00:59:34.094Z,100525.13
2022-10-17T01:02:04.794Z,100512.41
2022-10-17T01:04:32.086Z,100521.75
2022-10-17T01:06:59.043Z,100529.50
2022-10-17T01:09:27.474Z,100527.84
2022-10-17T01:12:21.358Z,100528.50
2022-10-17T01:14:51.002Z,100533.78
2022-10-17T01:17:34.027Z,100521.72
2022-10-17T01:20:34.903Z,100530.69
2022-10-17T01:23:28.341Z,100528.19
2022-10-17T01:26:21.519Z,100527.03
2022-10-17T01:29:26.458Z,100529.34
2022-10-17T01:32:02.154Z,100534.56
2022-10-17T01:35:00.190Z,100533.91
2022-10-17T01:37:37.534Z,100529.13
2022-10-17T01:40:12.823Z,100539.16
2022-10-17T01:43:02.934Z,100526.38
2022-10-17T01:45:29.664Z,100519.66
2022-10-17T01:48:00.827Z,100529.47
2022-10-17T01:50:51.686Z,100529.47
2022-10-17T01:53:36.040Z,100518.25
2022-10-17T01:56:08.046Z,100531.31
2022-10-17T01:58:58.588Z,100529.25
2022-10-17T02:01:29.666Z,100529.91
2022-10-17T02:03:58.362Z,100531.84
2022-10-17T02:06:25.503Z,100529.84
2022-10-17T02:08:52.435Z,100519.13
2022-10-17T02:11:23.004Z,100530.78
2022-10-17T02:13:58.877Z,100533.13
2022-10-17T02:17:02.415Z,100536.66
2022-10-17T02:19:57.902Z,100534.03
2022-10-17T02:22:42.057Z,100535.84
2022-10-17T02:25:20.642Z,100534.38
2022-10-17T02:28:05.433Z,100548.63
2022-10-17T02:31:02.968Z,100538.38
2022-10-17T02:33:37.484Z,100538.19
2022-10-17T02:36:09.544Z,100544.94
2022-10-17T02:38:37.057Z,100543.16
2022-10-17T02:41:07.936Z,100555.75
2022-10-17T02:43:36.519Z,100548.13
2022-10-17T02:46:04.236Z,100541.03
2022-10-17T02:48:50.431Z,100555.56
2022-10-17T02:51:26.011Z,100546.13
2022-10-17T02:54:31.996Z,100546.78
2022-10-17T02:57:03.562Z,100552.97
2022-10-17T03:02:04.763Z,100561.38
2022-10-17T03:04:32.838Z,100560.44
2022-10-17T03:07:00.101Z,100565.72
2022-10-17T03:09:27.652Z,100560.16
2022-10-17T03:11:54.626Z,100570.59
2022-10-17T03:14:21.594Z,100554.94
2022-10-17T03:16:48.429Z,100557.25
2022-10-17T03:19:15.380Z,100570.84
2022-10-17T03:21:42.196Z,100568.19
2022-10-17T03:24:09.225Z,100564.41
2022-10-17T03:26:36.559Z,100563.97
2022-10-17T03:29:04.072Z,100566.75
2022-10-17T03:31:31.261Z,100580.63
2022-10-17T03:33:58.221Z,100576.53
2022-10-17T03:36:25.255Z,100574.31
2022-10-17T03:38:55.482Z,100584.97
2022-10-17T03:41:22.432Z,100581.00
2022-10-17T03:43:49.394Z,100577.81
2022-10-17T03:48:48.107Z,100588.66
2022-10-17T03:51:15.643Z,100581.88
2022-10-17T03:53:42.657Z,100592.56
2022-10-17T03:56:21.805Z,100591.25
2022-10-17T03:58:49.215Z,100589.78
2022-10-17T04:01:17.739Z,100594.78
2022-10-17T04:03:44.879Z,100584.75
2022-10-17T04:06:13.047Z,100588.91
2022-10-17T04:08:40.263Z,100583.84
2022-10-17T04:11:08.561Z,100591.59
2022-10-17T04:13:36.123Z,100597.09
2022-10-17T04:16:08.730Z,100592.09
2022-10-17T04:18:35.678Z,100594.31
2022-10-17T04:21:03.684Z,100596.22
2022-10-17T04:23:30.860Z,100592.41
2022-10-17T04:25:58.935Z,100598.97
2022-10-17T04:28:27.464Z,100591.84
2022-10-17T04:31:02.147Z,100589.13
2022-10-17T04:33:29.609Z,100611.69
2022-10-17T04:36:04.805Z,100605.00
2022-10-17T04:38:33.069Z,100599.47
2022-10-17T04:41:05.245Z,100605.66
2022-10-17T04:43:37.154Z,100601.56
2022-10-17T04:46:07.231Z,100607.91
2022-10-17T04:48:34.034Z,100610.63
2022-10-17T04:51:04.627Z,100608.09
2022-10-17T04:53:33.983Z,100603.00
2022-10-17T04:56:01.168Z,100607.22
2022-10-17T04:58:31.018Z,100609.81
2022-10-17T05:00:57.958Z,100613.78
2022-10-17T05:03:24.972Z,100611.81
2022-10-17T05:05:51.855Z,100615.84
2022-10-17T05:08:18.679Z,100613.88
2022-10-17T05:10:48.629Z,100620.50
2022-10-17T05:13:16.202Z,100614.91
2022-10-17T05:15:43.051Z,100627.09
2022-10-17T05:18:10.068Z,100626.78
2022-10-17T05:20:36.964Z,100636.28
2022-10-17T05:23:03.832Z,100632.38
2022-10-17T05:25:30.711Z,100642.03
2022-10-17T05:27:57.628Z,100646.72
2022-10-17T05:30:24.615Z,100653.34
2022-10-17T05:32:55.252Z,100647.06
2022-10-17T05:35:22.889Z,100668.31
2022-10-17T05:37:49.750Z,100666.50
2022-10-17T05:40:16.774Z,100675.97
2022-10-17T05:42:48.057Z,100668.91
2022-10-17T05:45:16.087Z,100675.00
2022-10-17T05:47:42.997Z,100679.22
2022-10-17T05:50:10.521Z,100684.94
2022-10-17T05:52:37.448Z,100674.31
2022-10-17T05:55:05.880Z,100687.03
2022-10-17T05:57:32.972Z,100687.06
2022-10-17T06:00:01.035Z,100679.91
2022-10-17T06:02:28.144Z,100697.25
2022-10-17T06:04:55.452Z,100689.06
2022-10-17T06:07:22.408Z,100710.53
2022-10-17T06:09:49.267Z,100708.75
2022-10-17T06:12:16.387Z,100704.28
2022-10-17T06:14:43.308Z,100715.84
2022-10-17T06:17:15.568Z,100710.72
2022-10-17T06:19:44.936Z,100716.88
2022-10-17T06:22:12.386Z,100714.22
2022-10-17T06:24:39.328Z,100709.47
2022-10-17T06:27:10.895Z,100712.50
2022-10-17T06:29:57.463Z,100709.84
2022-10-17T06:32:24.450Z,100706.69
2022-10-17T06:34:51.358Z,100720.03
2022-10-17T06:37:18.971Z,100714.94
2022-10-17T06:39:45.900Z,100711.09
2022-10-17T06:42:12.960Z,100715.50
2022-10-17T06:44:41.200Z,100719.50
2022-10-17T06:47:08.225Z,100723.53
2022-10-17T06:49:35.134Z,100721.81
2022-10-17T06:52:02.003Z,100720.19
2022-10-17T06:54:28.924Z,100720.72
2022-10-17T06:56:56.377Z,100723.78
2022-10-17T06:59:23.277Z,100714.28
2022-10-17T07:01:50.412Z,100721.25
2022-10-17T07:04:17.468Z,100727.06
2022-10-17T07:06:44.484Z,100725.09
2022-10-17T07:09:11.476Z,100722.28
2022-10-17T07:11:38.455Z,100715.38
2022-10-17T07:14:05.325Z,100717.72
2022-10-17T07:16:32.705Z,100723.84
2022-10-17T07:18:59.794Z,100718.31
2022-10-17T07:21:29.789Z,100721.97
2022-10-17T07:23:56.710Z,100723.16
2022-10-17T07:26:23.608Z,100730.41
2022-10-17T07:28:54.419Z,100730.53
2022-10-17T07:31:22.876Z,100740.88
2022-10-17T07:33:50.327Z,100727.47
2022-10-17T07:36:18.096Z,100730.44
2022-10-17T07:38:45.132Z,100732.66
2022-10-17T07:41:17.762Z,100733.78
2022-10-17T07:43:48.042Z,100731.19
2022-10-17T07:46:14.894Z,100735.28
2022-10-17T07:48:41.756Z,100735.19
2022-10-17T07:51:10.053Z,100736.09
2022-10-17T07:53:38.748Z,100735.88
2022-10-17T07:56:07.680Z,100730.28
2022-10-17T07:58:35.639Z,100734.63
2022-10-17T08:01:14.822Z,100737.19
2022-10-17T08:03:44.615Z,100733.53
2022-10-17T08:06:12.726Z,100734.44
2022-10-17T08:08:39.727Z,100732.59
2022-10-17T08:11:12.002Z,100731.78
2022-10-17T08:13:40.570Z,100723.94
2022-10-17T08:16:10.716Z,100720.38
2022-10-17T08:18:40.662Z,100728.94
2022-10-17T08:21:08.644Z,100733.50
2022-10-17T08:23:36.544Z,100730.13
2022-10-17T08:26:05.966Z,100737.13
2022-10-17T08:28:35.867Z,100739.88
2022-10-17T08:31:05.083Z,100725.72
2022-10-17T08:33:33.427Z,100729.00
2022-10-17T08:36:02.093Z,100731.56
2022-10-17T08:38:32.111Z,100729.59
2022-10-17T08:41:21.850Z,100743.88
2022-10-17T08:44:33.429Z,100733.22
2022-10-17T08:47:04.648Z,100734.72
2022-10-17T08:49:47.295Z,100748.91
2022-10-17T08:52:32.942Z,100728.72
2022-10-17T08:54:59.881Z,100739.69
2022-10-17T08:57:29.121Z,100736.63
2022-10-17T08:59:57.463Z,100733.56
2022-10-17T09:02:45.080Z,100723.97
2022-10-17T09:05:44.335Z,100739.00
2022-10-17T09:08:23.275Z,100735.16
2022-10-17T09:10:56.664Z,100758.31
2022-10-17T09:13:54.477Z,100750.38
2022-10-17T09:16:38.432Z,100746.41
2022-10-17T09:19:29.493Z,100743.28
2022-10-17T09:22:09.503Z,100751.19
2022-10-17T09:24:39.178Z,100747.59
2022-10-17T09:27:29.978Z,100742.78
2022-10-17T09:30:44.212Z,100768.13
2022-10-17T09:33:34.283Z,100747.03
2022-10-17T09:36:05.921Z,100746.28
2022-10-17T09:38:45.982Z,100756.78
2022-10-17T09:41:44.194Z,100756.56
2022-10-17T09:44:22.118Z,100760.00
2022-10-17T09:50:31.954Z,100745.97
2022-10-17T09:53:11.659Z,100752.19
2022-10-17T09:55:51.152Z,100753.50
2022-10-17T09:58:18.064Z,100758.63
2022-10-17T10:00:47.695Z,100749.59
2022-10-17T10:03:22.078Z,100748.97
2022-10-17T10:06:05.169Z,100739.28
2022-10-17T10:08:36.025Z,100746.09
2022-10-17T10:11:13.415Z,100745.63
2022-10-17T10:13:41.248Z,100738.75
2022-10-17T10:16:41.668Z,100742.00
2022-10-17T10:19:26.739Z,100747.28
2022-10-17T10:22:00.025Z,100733.97
2022-10-17T10:24:30.754Z,100732.16
2022-10-17T10:27:02.600Z,100741.59
2022-10-17T10:29:34.416Z,100742.22
2022-10-17T10:32:29.642Z,100736.84
2022-10-17T10:35:23.099Z,100734.38
2022-10-17T10:37:56.458Z,100729.00
2022-10-17T10:40:27.597Z,100730.88
2022-10-17T10:43:04.029Z,100734.28
2022-10-17T10:45:53.387Z,100730.84
2022-10-17T10:48:24.658Z,100729.78
2022-10-17T10:51:14.692Z,100717.25
2022-10-17T10:54:18.007Z,100711.59
2022-10-17T10:56:53.688Z,100712.53
2022-10-17T10:59:35.573Z,100707.25
2022-10-17T11:02:34.496Z,100706.31
2022-10-17T11:05:21.181Z,100703.16
2022-10-17T11:08:04.236Z,100704.69
2022-10-17T11:10:44.588Z,100685.03
2022-10-17T11:13:18.172Z,100694.66
2022-10-17T11:15:52.812Z,100701.66
2022-10-17T11:18:41.221Z,100691.00
2022-10-17T11:21:24.434Z,100686.69
2022-10-17T11:24:17.683Z,100680.56
2022-10-17T11:27:06.970Z,100689.78
2022-10-17T11:29:38.426Z,100698.50
2022-10-17T11:32:35.299Z,100686.81
2022-10-17T11:35:36.859Z,100683.09
2022-10-17T11:38:26.804Z,100681.56
2022-10-17T11:40:59.929Z,100680.53
2022-10-17T11:43:35.592Z,100675.28
2022-10-17T11:46:11.640Z,100676.94
2022-10-17T11:49:01.072Z,100666.94
2022-10-17T11:54:28.911Z,100658.34
2022-10-17T11:57:37.474Z,100656.25
2022-10-17T12:00:49.121Z,100662.28
2022-10-17T12:03:35.069Z,100660.97
2022-10-17T12:06:40.433Z,100649.19
2022-10-17T12:09:20.995Z,100651.44
2022-10-17T12:12:04.672Z,100654.19
2022-10-17T12:14:41.955Z,100653.19
2022-10-17T12:17:35.591Z,100653.66
2022-10-17T12:20:35.781Z,100649.00
2022-10-17T12:23:11.446Z,100647.34
2022-10-17T12:26:01.535Z,100650.75
2022-10-17T12:28:44.614Z,100651.44
2022-10-17T12:31:29.564Z,100649.59
2022-10-17T12:34:02.223Z,100648.66
2022-10-17T12:36:29.084Z,100645.31
2022-10-17T12:39:01.969Z,100640.72
2022-10-17T12:41:45.174Z,100640.91
2022-10-17T12:44:15.142Z,100642.44
2022-10-17T12:46:45.060Z,100638.00
2022-10-17T12:49:39.733Z,100638.19
2022-10-17T12:52:15.393Z,100638.94
2022-10-17T12:55:00.364Z,100638.81
2022-10-17T12:57:55.809Z,100654.13
2022-10-17T13:00:25.480Z,100634.69
2022-10-17T13:02:54.942Z,100640.56
2022-10-17T13:05:31.794Z,100637.53
2022-10-17T13:08:02.455Z,100634.19
2022-10-17T13:10:33.623Z,100628.84
2022-10-17T13:13:15.806Z,100635.69
2022-10-17T13:15:50.636Z,100624.94
2022-10-17T13:18:23.456Z,100632.53
2022-10-17T13:21:14.492Z,100624.56
2022-10-17T13:23:41.625Z,100637.03
2022-10-17T13:26:26.785Z,100632.56
2022-10-17T13:29:12.680Z,100641.31
2022-10-17T13:31:42.453Z,100630.88
2022-10-17T13:34:18.391Z,100634.50
2022-10-17T13:36:49.244Z,100640.50
2022-10-17T13:39:23.090Z,100631.84
2022-10-17T13:41:59.856Z,100635.25
2022-10-17T13:44:32.638Z,100628.38
2022-10-17T13:46:59.730Z,100629.09
2022-10-17T13:49:34.830Z,100627.41
2022-10-17T13:52:05.360Z,100633.72
2022-10-17T13:54:36.956Z,100639.78
2022-10-17T13:57:05.856Z,100638.09
2022-10-17T13:59:43.545Z,100636.28
2022-10-17T14:02:25.472Z,100645.16
2022-10-17T14:05:19.340Z,100645.16
2022-10-17T14:08:11.334Z,100640.72
2022-10-17T14:10:41.176Z,100644.41
2022-10-17T14:13:23.013Z,100641.75
2022-10-17T14:15:51.131Z,100636.44
2022-10-17T14:18:24.117Z,100642.59
2022-10-17T14:23:44.170Z,100637.41
2022-10-17T14:26:18.911Z,100636.63
2022-10-17T14:29:07.580Z,100644.63
2022-10-17T14:31:37.631Z,100641.94
2022-10-17T14:34:05.733Z,100645.53
2022-10-17T14:36:36.225Z,100631.53
2022-10-17T14:39:05.094Z,100632.34
2022-10-17T14:41:42.791Z,100641.25
2022-10-17T14:44:19.094Z,100632.44
2022-10-17T14:46:50.804Z,100628.03
2022-10-17T14:49:25.440Z,100629.84
2022-10-17T14:52:18.594Z,100635.25
2022-10-17T14:54:48.329Z,100633.47
2022-10-17T14:57:19.418Z,100633.47
2022-10-17T14:59:55.081Z,100640.50
2022-10-17T15:02:27.845Z,100637.91
2022-10-17T15:04:55.211Z,100628.22
2022-10-17T15:07:22.432Z,100630.00
2022-10-17T15:09:51.191Z,100623.06
2022-10-17T15:12:20.758Z,100618.66
2022-10-17T15:14:48.682Z,100612.53
2022-10-17T15:17:20.982Z,100613.41
2022-10-17T15:19:48.807Z,100629.22
2022-10-17T15:22:16.388Z,100621.34
2022-10-17T15:24:43.370Z,100615.19
2022-10-17T15:27:24.662Z,100619.56
2022-10-17T15:29:53.186Z,100620.44
2022-10-17T15:32:20.106Z,100609.91
2022-10-17T15:34:47.266Z,100618.66
2022-10-17T15:37:25.591Z,100627.41
2022-10-17T15:39:55.712Z,100623.03
2022-10-17T15:42:26.889Z,100621.22
2022-10-17T15:44:54.044Z,100626.50
2022-10-17T15:47:35.491Z,100619.47
2022-10-17T15:50:22.049Z,100626.47
2022-10-17T15:52:51.160Z,100629.94
2022-10-17T15:55:18.447Z,100627.31
2022-10-17T15:57:47.621Z,100636.03
2022-10-17T16:00:20.733Z,100635.13
2022-10-17T16:02:50.228Z,100639.47
2022-10-17T16:05:29.348Z,100641.97
2022-10-17T16:07:57.654Z,100638.34
2022-10-17T16:10:26.141Z,100642.59
2022-10-17T16:12:53.134Z,100646.91
2022-10-17T16:15:24.123Z,100648.56
2022-10-17T16:17:52.443Z,100646.72
2022-10-17T16:20:20.373Z,100657.09
2022-10-17T16:22:48.525Z,100661.25
2022-10-17T16:25:22.624Z,100662.91
2022-10-17T16:27:53.073Z,100670.69
2022-10-17T16:32:49.501Z,100668.72
2022-10-17T16:35:18.892Z,100676.41
2022-10-17T16:37:45.857Z,100671.88
2022-10-17T16:40:31.225Z,100663.78
2022-10-17T16:42:58.319Z,100676.75
2022-10-17T16:45:25.164Z,100675.88
2022-10-17T16:47:53.361Z,100680.69
2022-10-17T16:50:20.347Z,100692.00
2022-10-17T16:52:47.392Z,100683.09
2022-10-17T16:55:14.668Z,100685.91
2022-10-17T17:00:12.130Z,100681.34
2022-10-17T17:02:39.051Z,100686.72
2022-10-17T17:05:06.347Z,100688.47
2022-10-17T17:07:33.891Z,100682.50
2022-10-17T17:10:00.766Z,100690.19
2022-10-17T17:12:27.567Z,100699.38
2022-10-17T17:14:54.379Z,100695.69
2022-10-17T17:17:30.589Z,100700.56
2022-10-17T17:20:08.486Z,100699.84
2022-10-17T17:22:35.426Z,100705.75
2022-10-17T17:25:02.252Z,100696.91
2022-10-17T17:27:29.474Z,100707.34
2022-10-17T17:29:56.577Z,100712.56
2022-10-17T17:32:23.577Z,100704.88
2022-10-17T17:34:50.405Z,100717.94
2022-10-17T17:37:17.526Z,100711.72
2022-10-17T17:39:44.431Z,100719.25
2022-10-17T17:44:48.843Z,100715.34
2022-10-17T17:47:16.007Z,100713.44
2022-10-17T17:49:43.183Z,100732.59
2022-10-17T17:52:10.087Z,100728.16
2022-10-17T17:54:40.047Z,100730.69
2022-10-17T17:57:07.924Z,100715.88
2022-10-17T17:59:35.481Z,100718.38
2022-10-17T18:02:03.055Z,100719.88
2022-10-17T18:04:29.927Z,100718.91
2022-10-17T18:06:56.749Z,100714.94
2022-10-17T18:09:24.186Z,100714.44
2022-10-17T18:11:51.288Z,100717.91
2022-10-17T18:14:19.355Z,100725.44
2022-10-17T18:16:46.207Z,100732.06
2022-10-17T18:19:13.117Z,100731.72
2022-10-17T18:21:39.958Z,100728.78
2022-10-17T18:24:07.521Z,100731.19
2022-10-17T18:26:34.989Z,100726.75
2022-10-17T18:29:02.406Z,100729.00
2022-10-17T18:31:32.307Z,100730.28
2022-10-17T18:34:00.386Z,100725.84
2022-10-17T18:36:28.747Z,100730.81
2022-10-17T18:38:56.417Z,100733.06
2022-10-17T18:41:26.695Z,100721.59
2022-10-17T18:43:55.756Z,100728.63
2022-10-17T18:46:28.349Z,100733.72
2022-10-17T18:48:55.258Z,100737.13
2022-10-17T18:51:23.723Z,100736.13
2022-10-17T18:53:53.205Z,100726.50
2022-10-17T18:56:21.471Z,100733.38
2022-10-17T18:58:48.474Z,100736.84
2022-10-17T19:01:22.521Z,100740.03
2022-10-17T19:03:52.115Z,100732.38
2022-10-17T19:06:21.945Z,100743.59
2022-10-17T19:08:49.063Z,100738.66
2022-10-17T19:11:19.515Z,100726.81
2022-10-17T19:13:47.732Z,100740.97
2022-10-17T19:16:19.044Z,100737.81
2022-10-17T19:18:53.916Z,100736.97
2022-10-17T19:21:22.332Z,100748.84
2022-10-17T19:23:51.493Z,100739.41
2022-10-17T19:26:19.683Z,100739.75
2022-10-17T19:28:47.768Z,100738.25
2022-10-17T19:31:17.012Z,100741.22
2022-10-17T19:33:44.933Z,100739.72
2022-10-17T19:36:13.152Z,100748.03
2022-10-17T19:38:40.182Z,100743.81
2022-10-17T19:41:09.560Z,100745.28
2022-10-17T19:43:38.051Z,100750.53
2022-10-17T19:46:12.233Z,100740.41
2022-10-17T19:48:39.498Z,100748.84
2022-10-17T19:51:08.322Z,100747.59
2022-10-17T19:53:35.489Z,100754.47
2022-10-17T19:56:02.603Z,100745.34
2022-10-17T19:58:29.482Z,100760.81
2022-10-17T20:00:59.092Z,100748.50
2022-10-17T20:03:25.889Z,100743.06
2022-10-17T20:05:54.074Z,100748.38
2022-10-17T20:08:21.574Z,100749.84
2022-10-17T20:10:48.467Z,100749.88
2022-10-17T20:13:15.306Z,100762.00
2022-10-17T20:15:42.473Z,100759.28
2022-10-17T20:18:09.863Z,100752.34
2022-10-17T20:20:37.860Z,100754.59
2022-10-17T20:23:05.049Z,100749.69
2022-10-17T20:25:33.536Z,100749.69
2022-10-17T20:28:00.732Z,100746.78
2022-10-17T20:30:27.865Z,100748.13
2022-10-17T20:32:55.439Z,100745.09
2022-10-17T20:35:22.843Z,100749.41
2022-10-17T20:37:49.965Z,100744.13
2022-10-17T20:40:34.167Z,100736.97
2022-10-17T20:43:01.871Z,100749.72
2022-10-17T20:45:43.680Z,100734.63
2022-10-17T20:48:16.235Z,100739.38
2022-10-17T20:50:44.450Z,100742.63
2022-10-17T20:56:08.522Z,100742.22
2022-10-17T20:58:35.735Z,100736.97
2022-10-17T21:01:10.616Z,100739.34
2022-10-17T21:03:42.320Z,100749.53
2022-10-17T21:06:13.131Z,100737.09
2022-10-17T21:08:40.203Z,100747.53
2022-10-17T21:11:12.158Z,100738.66
2022-10-17T21:13:39.845Z,100745.38
2022-10-17T21:16:18.197Z,100745.66
2022-10-17T21:18:46.775Z,100752.91
2022-10-17T21:21:16.483Z,100754.41
2022-10-17T21:23:46.296Z,100744.28
2022-10-17T21:26:13.772Z,100749.56
2022-10-17T21:28:42.161Z,100756.31
2022-10-17T21:31:11.259Z,100747.91
2022-10-17T21:33:38.498Z,100750.53
2022-10-17T21:36:05.765Z,100746.59
2022-10-17T21:38:35.972Z,100744.13
2022-10-17T21:41:03.283Z,100747.38
2022-10-17T21:43:30.086Z,100737.66
2022-10-17T21:45:56.903Z,100743.47
2022-10-17T21:48:23.825Z,100748.25
2022-10-17T21:50:56.935Z,100753.31
2022-10-17T21:53:23.783Z,100744.22
2022-10-17T21:55:50.665Z,100733.97
2022-10-17T21:58:17.510Z,100736.91
2022-10-17T22:00:44.343Z,100740.38
2022-10-17T22:03:29.833Z,100734.38
2022-10-17T22:06:07.022Z,100731.72
2022-10-17T22:08:43.692Z,100723.84
2022-10-17T22:11:13.492Z,100725.78
2022-10-17T22:13:40.677Z,100728.34
2022-10-17T22:16:11.124Z,100729.06
2022-10-17T22:18:38.541Z,100726.59
2022-10-17T22:21:16.283Z,100720.59
2022-10-17T22:23:45.388Z,100721.16
2022-10-17T22:26:12.560Z,100713.91
2022-10-17T22:28:41.036Z,100724.97
2022-10-17T22:33:33.824Z,100708.16
2022-10-17T22:36:00.944Z,100704.66
2022-10-17T22:38:28.211Z,100713.97
2022-10-17T22:40:55.094Z,100703.66
2022-10-17T22:43:22.091Z,100699.41
2022-10-17T22:45:59.992Z,100705.88
2022-10-17T22:48:28.072Z,100698.22
2022-10-17T22:50:56.163Z,100707.63
2022-10-17T22:53:24.958Z,100701.88
2022-10-17T22:55:59.104Z,100695.22
2022-10-17T22:58:27.453Z,100701.09
2022-10-17T23:00:55.366Z,100706.09
2022-10-17T23:03:23.652Z,100701.88
2022-10-17T23:05:51.545Z,100715.47
2022-10-17T23:08:19.861Z,100710.16
2022-10-17T23:10:48.044Z,100705.25
2022-10-17T23:13:15.562Z,100711.06
2022-10-17T23:15:42.983Z,100711.06
2022-10-17T23:18:10.209Z,100704.63
2022-10-17T23:20:37.828Z,100709.22
2022-10-17T23:23:05.331Z,100703.91
2022-10-17T23:25:34.536Z,100706.63
2022-10-17T23:28:01.830Z,100708.47
2022-10-17T23:30:29.103Z,100698.75
2022-10-17T23:32:56.139Z,100697.97
2022-10-17T23:35:23.345Z,100697.47
2022-10-17T23:37:50.641Z,100703.22
2022-10-17T23:40:17.622Z,100700.56
2022-10-17T23:42:45.222Z,100700.84
2022-10-17T23:45:12.131Z,100694.44
2022-10-17T23:47:39.762Z,100699.56
2022-10-17T23:50:08.655Z,100700.63
2022-10-17T23:52:35.521Z,100693.81
2022-10-17T23:55:02.470Z,100696.41
2022-10-17T23:57:29.466Z,100693.72
2022-10-17T23:59:56.713Z,100681.66
